Salvamar Mimosa — EC2473 — position and weather

sailwx.info

Track history (hours):
 
Tides and Currents Weather Stations Pressure Air Temp Water Temp Dewpoint Dewpoint Depression Visibility Wind Speed Wind Dir Waves Ship Positions

Salvamar Mimosa

Last reported at 2014-Dec-19 11:31 UTC. Time now 2014-Dec-19 13:39 UTC.
Position N 37°36' W 000°58'.

Length 21 m; draft 1.2 m.

Type: SAR. MMSI: 224363280.

Date/timePositionNaut miles runAvg speedWind from/ knotsBaromVisibWave heightAir tempDewpointWater temp
2014-Dec-19 11:31N 37°36' W 000°58'0 0.0
2014-Dec-19 10:31N 37°36' W 000°58'0 0.0
2014-Dec-19 09:31N 37°36' W 000°58'0 0.0
2014-Dec-18 16:33N 37°36' W 000°58'0 0.0
2014-Dec-18 15:32N 37°36' W 000°58'0 0.0
2014-Dec-18 14:33N 37°36' W 000°58'0 0.0
2014-Dec-18 13:33N 37°36' W 000°58'0 0.0
2014-Dec-18 12:33N 37°36' W 000°58'0 0.0
2014-Dec-18 11:33N 37°36' W 000°58'0 0.0
2014-Dec-18 10:33N 37°36' W 000°58'0 0.0
2014-Dec-18 09:33N 37°36' W 000°58'0 0.0
2014-Dec-18 08:33N 37°36' W 000°58'0 0.0
2014-Dec-17 16:33N 37°36' W 000°58'0 0.0
2014-Dec-17 15:33N 37°36' W 000°58'0 0.0
2014-Dec-17 14:18N 37°36' W 000°58'0 0.0
2014-Dec-17 13:18N 37°36' W 000°58'0 0.0
2014-Dec-17 12:30N 37°36' W 000°58'0 0.0
2014-Dec-17 11:27N 37°36' W 000°58'0 0.0
2014-Dec-17 10:30N 37°36' W 000°58'0 0.0
2014-Dec-17 09:27N 37°36' W 000°58'0 0.0
2014-Dec-17 08:33N 37°36' W 000°58'0 0.0
2014-Dec-16 16:33N 37°36' W 000°58'0 0.0
2014-Dec-16 15:33N 37°36' W 000°58'0 0.0
2014-Dec-16 13:21N 37°36' W 000°58'0 0.0
2014-Dec-16 12:33N 37°36' W 000°58'0 0.0
2014-Dec-16 11:33N 37°36' W 000°58'0 0.0
2014-Dec-16 10:33N 37°36' W 000°58'0 0.0
2014-Dec-16 09:33N 37°36' W 000°58'0 0.0
2014-Dec-16 08:33N 37°36' W 000°58'0 0.0
2014-Dec-15 16:31N 37°36' W 000°58'0 0.0
2014-Dec-15 15:13N 37°36' W 000°58'0 0.0
2014-Dec-15 14:10N 37°36' W 000°58'0 0.0
2014-Dec-15 13:28N 37°36' W 000°58'0 0.0
2014-Dec-15 12:16N 37°36' W 000°58'0 0.0
2014-Dec-15 11:28N 37°36' W 000°58'0 0.0
2014-Dec-15 10:28N 37°36' W 000°58'0 0.0
2014-Dec-15 09:31N 37°36' W 000°58'0 0.0
2014-Dec-15 08:32N 37°36' W 000°58'0 0.0
2014-Dec-13 16:33N 37°36' W 000°59'0 0.3
2014-Dec-13 15:33N 37°36' W 000°58'3 0.2
2014-Dec-13 00:34N 37°34' W 001°01'5 1.6
2014-Dec-12 21:25N 37°32' W 001°07'8 1.6
2014-Dec-12 16:33N 37°36' W 000°59'9 9.1
2014-Dec-12 15:32N 37°31' W 000°48'7 5.5
2014-Dec-12 14:19N 37°33' W 000°56'3 1.6
2014-Dec-12 12:18N 37°36' W 000°58'0 0.0
2014-Dec-12 11:33N 37°36' W 000°58'0 0.0
2014-Dec-12 10:34N 37°36' W 000°58'0 0.0
2014-Dec-12 09:34N 37°36' W 000°58'0 0.0
2014-Dec-12 08:33N 37°36' W 000°58'0 0.0
2014-Dec-11 16:33N 37°36' W 000°58'0 0.2
2014-Dec-11 15:33N 37°36' W 000°59'5 3.8
2014-Dec-11 14:17N 37°33' W 000°53'4 4.8
2014-Dec-11 13:32N 37°33' W 000°49'2 0.3
2014-Dec-11 08:14N 37°34' W 000°51'7 0.4
2014-Dec-10 16:33N 37°36' W 000°58'0 0.0
2014-Dec-10 15:33N 37°36' W 000°58'0 0.0
2014-Dec-10 14:33N 37°36' W 000°58'0 0.0
2014-Dec-10 13:33N 37°36' W 000°58'0 0.0
2014-Dec-10 12:33N 37°36' W 000°58'0 0.0
2014-Dec-10 11:33N 37°36' W 000°58'0 0.0
2014-Dec-10 10:33N 37°36' W 000°58'0 0.0
2014-Dec-10 09:33N 37°36' W 000°58'0 0.0
2014-Dec-10 08:33N 37°36' W 000°58'  
Track history (hours):
 
Tides and Currents Weather Stations Pressure Air Temp Water Temp Dewpoint Dewpoint Depression Visibility Wind Speed Wind Dir Waves Ship Positions

Salvamar Mimosa

Last reported at 2014-Dec-19 11:31 UTC. Time now 2014-Dec-19 13:39 UTC.
Position N 37°36' W 000°58'.

Length 21 m; draft 1.2 m.

Type: SAR. MMSI: 224363280.

Date/timePositionNaut miles runAvg speedWind from/ knotsBaromVisibWave heightAir tempDewpointWater temp
2014-Dec-19 11:31N 37°36' W 000°58'0 0.0
2014-Dec-19 10:31N 37°36' W 000°58'0 0.0
2014-Dec-19 09:31N 37°36' W 000°58'0 0.0
2014-Dec-18 16:33N 37°36' W 000°58'0 0.0
2014-Dec-18 15:32N 37°36' W 000°58'0 0.0
2014-Dec-18 14:33N 37°36' W 000°58'0 0.0
2014-Dec-18 13:33N 37°36' W 000°58'0 0.0
2014-Dec-18 12:33N 37°36' W 000°58'0 0.0
2014-Dec-18 11:33N 37°36' W 000°58'0 0.0
2014-Dec-18 10:33N 37°36' W 000°58'0 0.0
2014-Dec-18 09:33N 37°36' W 000°58'0 0.0
2014-Dec-18 08:33N 37°36' W 000°58'0 0.0
2014-Dec-17 16:33N 37°36' W 000°58'0 0.0
2014-Dec-17 15:33N 37°36' W 000°58'0 0.0
2014-Dec-17 14:18N 37°36' W 000°58'0 0.0
2014-Dec-17 13:18N 37°36' W 000°58'0 0.0
2014-Dec-17 12:30N 37°36' W 000°58'0 0.0
2014-Dec-17 11:27N 37°36' W 000°58'0 0.0
2014-Dec-17 10:30N 37°36' W 000°58'0 0.0
2014-Dec-17 09:27N 37°36' W 000°58'0 0.0
2014-Dec-17 08:33N 37°36' W 000°58'0 0.0
2014-Dec-16 16:33N 37°36' W 000°58'0 0.0
2014-Dec-16 15:33N 37°36' W 000°58'0 0.0
2014-Dec-16 13:21N 37°36' W 000°58'0 0.0
2014-Dec-16 12:33N 37°36' W 000°58'0 0.0
2014-Dec-16 11:33N 37°36' W 000°58'0 0.0
2014-Dec-16 10:33N 37°36' W 000°58'0 0.0
2014-Dec-16 09:33N 37°36' W 000°58'0 0.0
2014-Dec-16 08:33N 37°36' W 000°58'0 0.0
2014-Dec-15 16:31N 37°36' W 000°58'0 0.0
2014-Dec-15 15:13N 37°36' W 000°58'0 0.0
2014-Dec-15 14:10N 37°36' W 000°58'0 0.0
2014-Dec-15 13:28N 37°36' W 000°58'0 0.0
2014-Dec-15 12:16N 37°36' W 000°58'0 0.0
2014-Dec-15 11:28N 37°36' W 000°58'0 0.0
2014-Dec-15 10:28N 37°36' W 000°58'0 0.0
2014-Dec-15 09:31N 37°36' W 000°58'0 0.0
2014-Dec-15 08:32N 37°36' W 000°58'0 0.0
2014-Dec-13 16:33N 37°36' W 000°59'0 0.3
2014-Dec-13 15:33N 37°36' W 000°58'3 0.2
2014-Dec-13 00:34N 37°34' W 001°01'5 1.6
2014-Dec-12 21:25N 37°32' W 001°07'8 1.6
2014-Dec-12 16:33N 37°36' W 000°59'9 9.1
2014-Dec-12 15:32N 37°31' W 000°48'7 5.5
2014-Dec-12 14:19N 37°33' W 000°56'3 1.6
2014-Dec-12 12:18N 37°36' W 000°58'0 0.0
2014-Dec-12 11:33N 37°36' W 000°58'0 0.0
2014-Dec-12 10:34N 37°36' W 000°58'0 0.0
2014-Dec-12 09:34N 37°36' W 000°58'0 0.0
2014-Dec-12 08:33N 37°36' W 000°58'0 0.0
2014-Dec-11 16:33N 37°36' W 000°58'0 0.2
2014-Dec-11 15:33N 37°36' W 000°59'5 3.8
2014-Dec-11 14:17N 37°33' W 000°53'4 4.8
2014-Dec-11 13:32N 37°33' W 000°49'2 0.3
2014-Dec-11 08:14N 37°34' W 000°51'7 0.4
2014-Dec-10 16:33N 37°36' W 000°58'0 0.0
2014-Dec-10 15:33N 37°36' W 000°58'0 0.0
2014-Dec-10 14:33N 37°36' W 000°58'0 0.0
2014-Dec-10 13:33N 37°36' W 000°58'0 0.0
2014-Dec-10 12:33N 37°36' W 000°58'0 0.0
2014-Dec-10 11:33N 37°36' W 000°58'0 0.0
2014-Dec-10 10:33N 37°36' W 000°58'0 0.0
2014-Dec-10 09:33N 37°36' W 000°58'0 0.0
2014-Dec-10 08:33N 37°36' W 000°58'  

Dump ship's entire track history